sensor_id;sensor_type;location;lat;lon;timestamp;pressure;altitude;pressure_sealevel;temperature;humidity
5126;BME280;63008;53.112;8.896;2023-07-30T00:01:28;100635.28;;;16.93;100.00
5126;BME280;63008;53.112;8.896;2023-07-30T00:03:28;100640.41;;;16.91;100.00
5126;BME280;63008;53.112;8.896;2023-07-30T00:05:29;100630.03;;;16.85;100.00
5126;BME280;63008;53.112;8.896;2023-07-30T00:07:30;100637.53;;;16.84;100.00
5126;BME280;63008;53.112;8.896;2023-07-30T00:09:31;100639.53;;;16.87;100.00
5126;BME280;63008;53.112;8.896;2023-07-30T00:11:32;100641.88;;;16.85;100.00
5126;BME280;63008;53.112;8.896;2023-07-30T00:13:33;100633.16;;;16.83;100.00
5126;BME280;63008;53.112;8.896;2023-07-30T00:15:34;100630.38;;;16.83;100.00
5126;BME280;63008;53.112;8.896;2023-07-30T00:17:35;100632.78;;;16.85;100.00
5126;BME280;63008;53.112;8.896;2023-07-30T00:19:36;100628.44;;;16.84;100.00
5126;BME280;63008;53.112;8.896;2023-07-30T00:21:37;100631.56;;;16.82;100.00
5126;BME280;63008;53.112;8.896;2023-07-30T00:23:38;100627.56;;;16.80;100.00
5126;BME280;63008;53.112;8.896;2023-07-30T00:25:39;100628.78;;;16.82;100.00
5126;BME280;63008;53.112;8.896;2023-07-30T00:27:40;100628.38;;;16.80;100.00
5126;BME280;63008;53.112;8.896;2023-07-30T00:29:41;100632.31;;;16.79;100.00
5126;BME280;63008;53.112;8.896;2023-07-30T00:31:42;100641.81;;;16.78;100.00
5126;BME280;63008;53.112;8.896;2023-07-30T00:33:43;100641.75;;;16.75;100.00
5126;BME280;63008;53.112;8.896;2023-07-30T00:35:44;100639.41;;;16.77;100.00
5126;BME280;63008;53.112;8.896;2023-07-30T00:37:45;100638.94;;;16.71;100.00
5126;BME280;63008;53.112;8.896;2023-07-30T00:39:46;100641.28;;;16.69;100.00
5126;BME280;63008;53.112;8.896;2023-07-30T00:41:47;100644.06;;;16.69;100.00
5126;BME280;63008;53.112;8.896;2023-07-30T00:43:48;100643.63;;;16.64;100.00
5126;BME280;63008;53.112;8.896;2023-07-30T00:45:49;100643.63;;;16.64;100.00
5126;BME280;63008;53.112;8.896;2023-07-30T00:47:50;100647.13;;;16.61;100.00
5126;BME280;63008;53.112;8.896;2023-07-30T00:49:51;100637.59;;;16.58;100.00
5126;BME280;63008;53.112;8.896;2023-07-30T00:51:52;100636.81;;;16.58;100.00
5126;BME280;63008;53.112;8.896;2023-07-30T00:53:56;100639.56;;;16.58;100.00
5126;BME280;63008;53.112;8.896;2023-07-30T00:55:57;100652.22;;;16.56;100.00
5126;BME280;63008;53.112;8.896;2023-07-30T00:57:59;100641.56;;;16.58;100.00
5126;BME280;63008;53.112;8.896;2023-07-30T01:00:00;100647.41;;;16.52;100.00
5126;BME280;63008;53.112;8.896;2023-07-30T01:02:05;100650.94;;;16.50;100.00
5126;BME280;63008;53.112;8.896;2023-07-30T01:04:06;100647.81;;;16.51;100.00
5126;BME280;63008;53.112;8.896;2023-07-30T01:06:07;100647.41;;;16.52;100.00
5126;BME280;63008;53.112;8.896;2023-07-30T01:08:08;100651.41;;;16.55;100.00
5126;BME280;63008;53.112;8.896;2023-07-30T01:10:09;100651.75;;;16.50;100.00
5126;BME280;63008;53.112;8.896;2023-07-30T01:12:11;100650.47;;;16.44;100.00
5126;BME280;63008;53.112;8.896;2023-07-30T01:14:12;100648.09;;;16.43;100.00
5126;BME280;63008;53.112;8.896;2023-07-30T01:16:15;100649.19;;;16.38;100.00
5126;BME280;63008;53.112;8.896;2023-07-30T01:18:16;100650.75;;;16.36;100.00
5126;BME280;63008;53.112;8.896;2023-07-30T01:20:17;100657.75;;;16.30;100.00
5126;BME280;63008;53.112;8.896;2023-07-30T01:22:17;100657.34;;;16.28;100.00
5126;BME280;63008;53.112;8.896;2023-07-30T01:24:18;100652.97;;;16.27;100.00
5126;BME280;63008;53.112;8.896;2023-07-30T01:26:23;100656.06;;;16.22;100.00
5126;BME280;63008;53.112;8.896;2023-07-30T01:28:26;100649.34;;;16.23;100.00
5126;BME280;63008;53.112;8.896;2023-07-30T01:30:30;100662.78;;;16.21;100.00
5126;BME280;63008;53.112;8.896;2023-07-30T01:32:33;100654.06;;;16.22;100.00
5126;BME280;63008;53.112;8.896;2023-07-30T01:34:36;100663.91;;;16.20;100.00
5126;BME280;63008;53.112;8.896;2023-07-30T01:36:38;100664.66;;;16.17;100.00
5126;BME280;63008;53.112;8.896;2023-07-30T01:38:40;100662.28;;;16.15;100.00
5126;BME280;63008;53.112;8.896;2023-07-30T01:40:41;100663.50;;;16.18;100.00
5126;BME280;63008;53.112;8.896;2023-07-30T01:42:42;100660.69;;;16.14;100.00
5126;BME280;63008;53.112;8.896;2023-07-30T01:44:43;100664.31;;;16.18;100.00
5126;BME280;63008;53.112;8.896;2023-07-30T01:46:44;100662.72;;;16.17;100.00
5126;BME280;63008;53.112;8.896;2023-07-30T01:48:45;100660.22;;;16.09;100.00
5126;BME280;63008;53.112;8.896;2023-07-30T01:50:46;100659.09;;;16.13;100.00
5126;BME280;63008;53.112;8.896;2023-07-30T01:52:50;100657.88;;;16.11;100.00
5126;BME280;63008;53.112;8.896;2023-07-30T01:54:50;100664.25;;;16.15;100.00
5126;BME280;63008;53.112;8.896;2023-07-30T01:56:52;100667.00;;;16.11;100.00
5126;BME280;63008;53.112;8.896;2023-07-30T01:58:53;100669.69;;;16.08;100.00
5126;BME280;63008;53.112;8.896;2023-07-30T02:00:55;100672.78;;;16.03;100.00
5126;BME280;63008;53.112;8.896;2023-07-30T02:02:56;100669.16;;;15.99;100.00
5126;BME280;63008;53.112;8.896;2023-07-30T02:04:57;100677.88;;;16.01;100.00
5126;BME280;63008;53.112;8.896;2023-07-30T02:06:57;100676.69;;;16.02;100.00
5126;BME280;63008;53.112;8.896;2023-07-30T02:08:58;100674.69;;;15.99;100.00
5126;BME280;63008;53.112;8.896;2023-07-30T02:10:59;100672.22;;;15.94;100.00
5126;BME280;63008;53.112;8.896;2023-07-30T02:13:00;100670.56;;;15.89;100.00
5126;BME280;63008;53.112;8.896;2023-07-30T02:15:02;100672.50;;;15.85;100.00
5126;BME280;63008;53.112;8.896;2023-07-30T02:17:03;100672.56;;;15.89;100.00
5126;BME280;63008;53.112;8.896;2023-07-30T02:19:04;100666.22;;;15.88;100.00
5126;BME280;63008;53.112;8.896;2023-07-30T02:21:05;100666.22;;;15.88;100.00
5126;BME280;63008;53.112;8.896;2023-07-30T02:23:06;100677.25;;;15.85;100.00
5126;BME280;63008;53.112;8.896;2023-07-30T02:25:07;100672.06;;;15.83;100.00
5126;BME280;63008;53.112;8.896;2023-07-30T02:27:08;100678.44;;;15.87;100.00
5126;BME280;63008;53.112;8.896;2023-07-30T02:29:09;100670.81;;;15.81;100.00
5126;BME280;63008;53.112;8.896;2023-07-30T02:31:10;100667.28;;;15.80;100.00
5126;BME280;63008;53.112;8.896;2023-07-30T02:33:11;100671.97;;;15.76;100.00
5126;BME280;63008;53.112;8.896;2023-07-30T02:35:12;100677.44;;;15.73;100.00
5126;BME280;63008;53.112;8.896;2023-07-30T02:37:13;100668.69;;;15.71;100.00
5126;BME280;63008;53.112;8.896;2023-07-30T02:39:14;100675.09;;;15.75;100.00
5126;BME280;63008;53.112;8.896;2023-07-30T02:41:15;100675.09;;;15.75;100.00
5126;BME280;63008;53.112;8.896;2023-07-30T02:43:16;100675.75;;;15.68;100.00
5126;BME280;63008;53.112;8.896;2023-07-30T02:45:17;100678.88;;;15.67;100.00
5126;BME280;63008;53.112;8.896;2023-07-30T02:47:18;100679.59;;;15.60;100.00
5126;BME280;63008;53.112;8.896;2023-07-30T02:49:19;100681.19;;;15.61;100.00
5126;BME280;63008;53.112;8.896;2023-07-30T02:51:20;100678.78;;;15.60;100.00
5126;BME280;63008;53.112;8.896;2023-07-30T02:53:21;100686.28;;;15.59;100.00
5126;BME280;63008;53.112;8.896;2023-07-30T02:55:22;100680.38;;;15.61;100.00
5126;BME280;63008;53.112;8.896;2023-07-30T02:57:23;100674.34;;;15.55;100.00
5126;BME280;63008;53.112;8.896;2023-07-30T02:59:24;100677.91;;;15.56;100.00
5126;BME280;63008;53.112;8.896;2023-07-30T03:01:25;100679.59;;;15.60;100.00
5126;BME280;63008;53.112;8.896;2023-07-30T03:03:26;100685.41;;;15.55;100.00
5126;BME280;63008;53.112;8.896;2023-07-30T03:05:27;100676.63;;;15.50;100.00
5126;BME280;63008;53.112;8.896;2023-07-30T03:07:28;100680.84;;;15.44;100.00
5126;BME280;63008;53.112;8.896;2023-07-30T03:09:29;100681.25;;;15.42;100.00
5126;BME280;63008;53.112;8.896;2023-07-30T03:11:30;100676.41;;;15.39;100.00
5126;BME280;63008;53.112;8.896;2023-07-30T03:13:31;100677.91;;;15.33;100.00
5126;BME280;63008;53.112;8.896;2023-07-30T03:15:32;100674.78;;;15.35;100.00
5126;BME280;63008;53.112;8.896;2023-07-30T03:17:33;100670.41;;;15.34;100.00
5126;BME280;63008;53.112;8.896;2023-07-30T03:19:34;100674.78;;;15.35;100.00
5126;BME280;63008;53.112;8.896;2023-07-30T03:21:35;100682.34;;;15.38;100.00
5126;BME280;63008;53.112;8.896;2023-07-30T03:23:36;100676.72;;;15.34;100.00
5126;BME280;63008;53.112;8.896;2023-07-30T03:25:37;100673.09;;;15.30;100.00
5126;BME280;63008;53.112;8.896;2023-07-30T03:27:38;100688.09;;;15.29;100.00
5126;BME280;63008;53.112;8.896;2023-07-30T03:29:39;100680.13;;;15.28;100.00
5126;BME280;63008;53.112;8.896;2023-07-30T03:31:40;100680.94;;;15.28;100.00
5126;BME280;63008;53.112;8.896;2023-07-30T03:33:41;100675.41;;;15.28;100.00
5126;BME280;63008;53.112;8.896;2023-07-30T03:35:44;100671.13;;;15.31;100.00
5126;BME280;63008;53.112;8.896;2023-07-30T03:37:45;100684.16;;;15.30;100.00
5126;BME280;63008;53.112;8.896;2023-07-30T03:39:46;100679.81;;;15.29;100.00
5126;BME280;63008;53.112;8.896;2023-07-30T03:41:47;100680.88;;;15.25;100.00
5126;BME280;63008;53.112;8.896;2023-07-30T03:43:48;100683.63;;;15.25;100.00
5126;BME280;63008;53.112;8.896;2023-07-30T03:45:49;100681.59;;;15.22;100.00
5126;BME280;63008;53.112;8.896;2023-07-30T03:47:50;100686.03;;;15.26;100.00
5126;BME280;63008;53.112;8.896;2023-07-30T03:49:51;100689.97;;;15.25;100.00
5126;BME280;63008;53.112;8.896;2023-07-30T03:51:52;100680.59;;;15.30;100.00
5126;BME280;63008;53.112;8.896;2023-07-30T03:53:53;100693.53;;;15.26;100.00
5126;BME280;63008;53.112;8.896;2023-07-30T03:55:54;100687.22;;;15.25;100.00
5126;BME280;63008;53.112;8.896;2023-07-30T03:57:55;100690.75;;;15.26;100.00
5126;BME280;63008;53.112;8.896;2023-07-30T03:59:56;100686.03;;;15.26;100.00
5126;BME280;63008;53.112;8.896;2023-07-30T04:01:57;100694.41;;;15.30;100.00
5126;BME280;63008;53.112;8.896;2023-07-30T04:03:58;100695.13;;;15.27;100.00
5126;BME280;63008;53.112;8.896;2023-07-30T04:05:59;100697.19;;;15.30;100.00
5126;BME280;63008;53.112;8.896;2023-07-30T04:08:00;100695.66;;;15.32;100.00
5126;BME280;63008;53.112;8.896;2023-07-30T04:10:01;100695.72;;;15.36;100.00
5126;BME280;63008;53.112;8.896;2023-07-30T04:12:02;100694.91;;;15.35;100.00
5126;BME280;63008;53.112;8.896;2023-07-30T04:14:03;100695.34;;;15.37;100.00
5126;BME280;63008;53.112;8.896;2023-07-30T04:16:05;100694.50;;;15.33;100.00
5126;BME280;63008;53.112;8.896;2023-07-30T04:18:06;100694.41;;;15.30;100.00
5126;BME280;63008;53.112;8.896;2023-07-30T04:20:08;100700.03;;;15.33;100.00
5126;BME280;63008;53.112;8.896;2023-07-30T04:22:10;100700.41;;;15.32;100.00
5126;BME280;63008;53.112;8.896;2023-07-30T04:24:11;100695.22;;;15.30;100.00
5126;BME280;63008;53.112;8.896;2023-07-30T04:26:12;100692.53;;;15.34;100.00
5126;BME280;63008;53.112;8.896;2023-07-30T04:28:13;100701.53;;;15.31;100.00
5126;BME280;63008;53.112;8.896;2023-07-30T04:30:14;100699.59;;;15.31;100.00
5126;BME280;63008;53.112;8.896;2023-07-30T04:32:14;100706.28;;;15.30;100.00
5126;BME280;63008;53.112;8.896;2023-07-30T04:34:15;100702.00;;;15.33;100.00
5126;BME280;63008;53.112;8.896;2023-07-30T04:36:16;100696.41;;;15.29;100.00
5126;BME280;63008;53.112;8.896;2023-07-30T04:38:17;100698.78;;;15.31;100.00
5126;BME280;63008;53.112;8.896;2023-07-30T04:40:18;100687.88;;;15.38;100.00
5126;BME280;63008;53.112;8.896;2023-07-30T04:42:19;100694.56;;;15.37;100.00
5126;BME280;63008;53.112;8.896;2023-07-30T04:44:20;100690.19;;;15.36;100.00
5126;BME280;63008;53.112;8.896;2023-07-30T04:46:21;100695.34;;;15.37;100.00
5126;BME280;63008;53.112;8.896;2023-07-30T04:48:22;100701.25;;;15.36;100.00
5126;BME280;63008;53.112;8.896;2023-07-30T04:50:23;100703.78;;;15.44;100.00
5126;BME280;63008;53.112;8.896;2023-07-30T04:52:24;100699.78;;;15.42;100.00
5126;BME280;63008;53.112;8.896;2023-07-30T04:54:25;100705.31;;;15.42;100.00
5126;BME280;63008;53.112;8.896;2023-07-30T04:56:26;100706.19;;;15.46;100.00
5126;BME280;63008;53.112;8.896;2023-07-30T04:58:27;100696.00;;;15.50;100.00
5126;BME280;63008;53.112;8.896;2023-07-30T05:00:28;100694.75;;;15.47;100.00
5126;BME280;63008;53.112;8.896;2023-07-30T05:02:29;100700.66;;;15.46;100.00
5126;BME280;63008;53.112;8.896;2023-07-30T05:04:30;100697.44;;;15.44;100.00
5126;BME280;63008;53.112;8.896;2023-07-30T05:06:31;100699.06;;;15.45;100.00
5126;BME280;63008;53.112;8.896;2023-07-30T05:08:33;100699.91;;;15.49;100.00
5126;BME280;63008;53.112;8.896;2023-07-30T05:10:34;100702.25;;;15.47;100.00
5126;BME280;63008;53.112;8.896;2023-07-30T05:12:35;100701.47;;;15.46;100.00
5126;BME280;63008;53.112;8.896;2023-07-30T05:14:36;100705.94;;;15.54;100.00
5126;BME280;63008;53.112;8.896;2023-07-30T05:16:37;100705.50;;;15.52;100.00
5126;BME280;63008;53.112;8.896;2023-07-30T05:18:38;100711.78;;;15.49;100.00
5126;BME280;63008;53.112;8.896;2023-07-30T05:20:39;100707.50;;;15.52;100.00
5126;BME280;63008;53.112;8.896;2023-07-30T05:22:40;100706.59;;;15.48;100.00
5126;BME280;63008;53.112;8.896;2023-07-30T05:24:41;100708.19;;;15.49;100.00
5126;BME280;63008;53.112;8.896;2023-07-30T05:26:42;100704.31;;;15.50;100.00
5126;BME280;63008;53.112;8.896;2023-07-30T05:28:43;100710.69;;;15.54;100.00
5126;BME280;63008;53.112;8.896;2023-07-30T05:30:44;100703.59;;;15.56;100.00
5126;BME280;63008;53.112;8.896;2023-07-30T05:32:45;100713.47;;;15.54;100.00
5126;BME280;63008;53.112;8.896;2023-07-30T05:34:46;100714.66;;;15.56;100.00
5126;BME280;63008;53.112;8.896;2023-07-30T05:36:47;100712.78;;;15.60;100.00
5126;BME280;63008;53.112;8.896;2023-07-30T05:38:48;100710.94;;;15.68;100.00
5126;BME280;63008;53.112;8.896;2023-07-30T05:40:49;100709.81;;;15.72;100.00
5126;BME280;63008;53.112;8.896;2023-07-30T05:42:49;100710.69;;;15.76;100.00
5126;BME280;63008;53.112;8.896;2023-07-30T05:44:50;100702.09;;;15.81;100.00
5126;BME280;63008;53.112;8.896;2023-07-30T05:46:51;100708.91;;;15.87;100.00
5126;BME280;63008;53.112;8.896;2023-07-30T05:48:52;100708.56;;;15.92;100.00
5126;BME280;63008;53.112;8.896;2023-07-30T05:50:53;100703.59;;;16.01;100.00
5126;BME280;63008;53.112;8.896;2023-07-30T05:52:54;100705.69;;;16.08;100.00
5126;BME280;63008;53.112;8.896;2023-07-30T05:54:55;100710.00;;;16.05;100.00
5126;BME280;63008;53.112;8.896;2023-07-30T05:56:56;100704.59;;;16.12;100.00
5126;BME280;63008;53.112;8.896;2023-07-30T05:58:57;100708.53;;;16.11;100.00
5126;BME280;63008;53.112;8.896;2023-07-30T06:00:58;100708.56;;;16.15;100.00
5126;BME280;63008;53.112;8.896;2023-07-30T06:02:59;100714.91;;;16.15;100.00
5126;BME280;63008;53.112;8.896;2023-07-30T06:05:00;100709.38;;;16.15;100.00
5126;BME280;63008;53.112;8.896;2023-07-30T06:07:02;100711.31;;;16.15;100.00
5126;BME280;63008;53.112;8.896;2023-07-30T06:09:03;100705.44;;;16.16;100.00
5126;BME280;63008;53.112;8.896;2023-07-30T06:11:04;100701.97;;;16.23;100.00
5126;BME280;63008;53.112;8.896;2023-07-30T06:13:06;100708.28;;;16.23;100.00
5126;BME280;63008;53.112;8.896;2023-07-30T06:15:08;100707.53;;;16.26;100.00
5126;BME280;63008;53.112;8.896;2023-07-30T06:17:10;100709.19;;;16.31;100.00
5126;BME280;63008;53.112;8.896;2023-07-30T06:19:10;100712.84;;;16.35;100.00
5126;BME280;63008;53.112;8.896;2023-07-30T06:21:11;100703.53;;;16.46;100.00
5126;BME280;63008;53.112;8.896;2023-07-30T06:23:12;100708.22;;;16.42;100.00
5126;BME280;63008;53.112;8.896;2023-07-30T06:25:13;100708.53;;;16.37;100.00
5126;BME280;63008;53.112;8.896;2023-07-30T06:27:14;100705.84;;;16.41;100.00
5126;BME280;63008;53.112;8.896;2023-07-30T06:29:15;100699.97;;;16.46;100.00
5126;BME280;63008;53.112;8.896;2023-07-30T06:31:16;100704.75;;;16.49;100.00
5126;BME280;63008;53.112;8.896;2023-07-30T06:33:17;100704.41;;;16.53;100.00
5126;BME280;63008;53.112;8.896;2023-07-30T06:35:18;100711.25;;;16.59;100.00
5126;BME280;63008;53.112;8.896;2023-07-30T06:37:19;100707.72;;;16.62;100.00
5126;BME280;63008;53.112;8.896;2023-07-30T06:39:20;100717.72;;;16.70;100.00
5126;BME280;63008;53.112;8.896;2023-07-30T06:41:22;100713.41;;;16.73;100.00
5126;BME280;63008;53.112;8.896;2023-07-30T06:43:23;100713.91;;;16.78;100.00
5126;BME280;63008;53.112;8.896;2023-07-30T06:45:24;100712.00;;;16.86;100.00
5126;BME280;63008;53.112;8.896;2023-07-30T06:47:25;100714.09;;;16.92;100.00
5126;BME280;63008;53.112;8.896;2023-07-30T06:49:26;100719.28;;;16.97;100.00
5126;BME280;63008;53.112;8.896;2023-07-30T06:51:27;100718.16;;;17.02;100.00
5126;BME280;63008;53.112;8.896;2023-07-30T06:53:28;100717.00;;;17.06;100.00
5126;BME280;63008;53.112;8.896;2023-07-30T06:55:29;100718.31;;;17.16;100.00
5126;BME280;63008;53.112;8.896;2023-07-30T06:57:30;100722.44;;;17.29;100.00
5126;BME280;63008;53.112;8.896;2023-07-30T06:59:31;100726.84;;;17.33;100.00
5126;BME280;63008;53.112;8.896;2023-07-30T07:01:32;100721.44;;;17.44;100.00
5126;BME280;63008;53.112;8.896;2023-07-30T07:03:33;100739.38;;;17.53;100.00
5126;BME280;63008;53.112;8.896;2023-07-30T07:05:34;100733.91;;;17.60;100.00
5126;BME280;63008;53.112;8.896;2023-07-30T07:07:35;100735.06;;;17.59;100.00
5126;BME280;63008;53.112;8.896;2023-07-30T07:09:36;100740.25;;;17.61;100.00
5126;BME280;63008;53.112;8.896;2023-07-30T07:11:37;100741.50;;;17.63;100.00
5126;BME280;63008;53.112;8.896;2023-07-30T07:13:38;100734.72;;;17.61;100.00
5126;BME280;63008;53.112;8.896;2023-07-30T07:15:39;100746.63;;;17.65;100.00
5126;BME280;63008;53.112;8.896;2023-07-30T07:17:40;100741.84;;;17.62;100.00
5126;BME280;63008;53.112;8.896;2023-07-30T07:19:41;100742.28;;;17.64;100.00
5126;BME280;63008;53.112;8.896;2023-07-30T07:21:42;100740.72;;;17.66;100.00
5126;BME280;63008;53.112;8.896;2023-07-30T07:23:43;100741.03;;;17.58;100.00
5126;BME280;63008;53.112;8.896;2023-07-30T07:25:44;100751.72;;;17.59;100.00
5126;BME280;63008;53.112;8.896;2023-07-30T07:27:45;100747.38;;;17.58;100.00
5126;BME280;63008;53.112;8.896;2023-07-30T07:29:46;100745.81;;;17.61;100.00
5126;BME280;63008;53.112;8.896;2023-07-30T07:31:47;100742.69;;;17.66;100.00
5126;BME280;63008;53.112;8.896;2023-07-30T07:33:48;100754.56;;;17.63;100.00
5126;BME280;63008;53.112;8.896;2023-07-30T07:35:49;100745.88;;;17.68;100.00
5126;BME280;63008;53.112;8.896;2023-07-30T07:37:50;100759.03;;;17.74;100.00
5126;BME280;63008;53.112;8.896;2023-07-30T07:39:51;100762.63;;;17.78;100.00
5126;BME280;63008;53.112;8.896;2023-07-30T07:41:52;100751.66;;;17.89;100.00
5126;BME280;63008;53.112;8.896;2023-07-30T07:43:53;100753.75;;;18.02;100.00
5126;BME280;63008;53.112;8.896;2023-07-30T07:45:54;100749.94;;;18.17;100.00
5126;BME280;63008;53.112;8.896;2023-07-30T07:47:55;100749.97;;;18.24;100.00
5126;BME280;63008;53.112;8.896;2023-07-30T07:49:56;100755.22;;;18.33;100.00
5126;BME280;63008;53.112;8.896;2023-07-30T07:51:57;100750.91;;;18.35;100.00
5126;BME280;63008;53.112;8.896;2023-07-30T07:53:58;100748.56;;;18.41;100.00
5126;BME280;63008;53.112;8.896;2023-07-30T07:55:59;100756.53;;;18.46;100.00
5126;BME280;63008;53.112;8.896;2023-07-30T07:58:00;100767.56;;;18.35;100.00
5126;BME280;63008;53.112;8.896;2023-07-30T08:00:01;100764.00;;;18.38;99.34
5126;BME280;63008;53.112;8.896;2023-07-30T08:02:02;100757.63;;;18.38;97.89
5126;BME280;63008;53.112;8.896;2023-07-30T08:04:03;100764.47;;;18.47;97.40
5126;BME280;63008;53.112;8.896;2023-07-30T08:06:05;100761.34;;;18.52;98.10
5126;BME280;63008;53.112;8.896;2023-07-30T08:08:06;100763.38;;;18.62;97.27
5126;BME280;63008;53.112;8.896;2023-07-30T08:10:07;100763.44;;;18.72;96.09
5126;BME280;63008;53.112;8.896;2023-07-30T08:12:08;100763.06;;;18.74;97.29
5126;BME280;63008;53.112;8.896;2023-07-30T08:14:09;100755.59;;;18.85;97.18
5126;BME280;63008;53.112;8.896;2023-07-30T08:16:10;100769.19;;;19.00;97.76
5126;BME280;63008;53.112;8.896;2023-07-30T08:18:11;100763.56;;;18.90;94.15
5126;BME280;63008;53.112;8.896;2023-07-30T08:20:12;100771.16;;;18.96;92.40
5126;BME280;63008;53.112;8.896;2023-07-30T08:22:13;100766.78;;;18.95;92.27
5126;BME280;63008;53.112;8.896;2023-07-30T08:24:14;100762.41;;;18.94;90.82
5126;BME280;63008;53.112;8.896;2023-07-30T08:26:15;100774.75;;;19.00;89.75
5126;BME280;63008;53.112;8.896;2023-07-30T08:28:16;100768.00;;;19.01;88.67
5126;BME280;63008;53.112;8.896;2023-07-30T08:30:17;100766.81;;;19.06;88.54
5126;BME280;63008;53.112;8.896;2023-07-30T08:32:18;100773.97;;;19.10;87.19
5126;BME280;63008;53.112;8.896;2023-07-30T08:34:21;100773.69;;;19.22;88.08
5126;BME280;63008;53.112;8.896;2023-07-30T08:36:22;100765.25;;;19.12;87.10
5126;BME280;63008;53.112;8.896;2023-07-30T08:38:24;100766.44;;;19.11;87.48
5126;BME280;63008;53.112;8.896;2023-07-30T08:40:25;100764.88;;;19.13;86.33
5126;BME280;63008;53.112;8.896;2023-07-30T08:42:26;100771.69;;;19.19;86.61
5126;BME280;63008;53.112;8.896;2023-07-30T08:44:27;100773.25;;;19.17;86.46
5126;BME280;63008;53.112;8.896;2023-07-30T08:46:28;100766.06;;;19.16;86.52
5126;BME280;63008;53.112;8.896;2023-07-30T08:48:29;100766.84;;;19.13;86.46
5126;BME280;63008;53.112;8.896;2023-07-30T08:50:30;100767.22;;;19.08;85.98
5126;BME280;63008;53.112;8.896;2023-07-30T08:52:32;100761.66;;;19.08;87.56
5126;BME280;63008;53.112;8.896;2023-07-30T08:54:36;100772.38;;;19.09;87.01
5126;BME280;63008;53.112;8.896;2023-07-30T08:56:37;100767.25;;;19.15;87.95
5126;BME280;63008;53.112;8.896;2023-07-30T08:58:38;100758.13;;;19.14;87.78
5126;BME280;63008;53.112;8.896;2023-07-30T09:00:40;100766.41;;;19.07;87.16
5126;BME280;63008;53.112;8.896;2023-07-30T09:02:47;100771.22;;;19.14;87.75
5126;BME280;63008;53.112;8.896;2023-07-30T09:04:50;100767.25;;;19.15;87.19
5126;BME280;63008;53.112;8.896;2023-07-30T09:06:53;100759.00;;;19.29;87.62
5126;BME280;63008;53.112;8.896;2023-07-30T09:08:55;100764.22;;;19.41;85.58
5126;BME280;63008;53.112;8.896;2023-07-30T09:10:56;100768.63;;;19.49;84.54
5126;BME280;63008;53.112;8.896;2023-07-30T09:12:57;100773.44;;;19.66;85.19
5126;BME280;63008;53.112;8.896;2023-07-30T09:15:04;100773.41;;;19.62;84.71
5126;BME280;63008;53.112;8.896;2023-07-30T09:17:05;100771.06;;;19.68;85.48
5126;BME280;63008;53.112;8.896;2023-07-30T09:19:06;100774.25;;;19.73;85.49
5126;BME280;63008;53.112;8.896;2023-07-30T09:21:10;100770.22;;;19.60;85.48
5126;BME280;63008;53.112;8.896;2023-07-30T09:23:12;100765.47;;;19.61;85.50
5126;BME280;63008;53.112;8.896;2023-07-30T09:25:13;100767.06;;;19.55;85.71
5126;BME280;63008;53.112;8.896;2023-07-30T09:27:20;100776.63;;;19.68;85.56
5126;BME280;63008;53.112;8.896;2023-07-30T09:29:23;100780.53;;;19.46;84.63
5126;BME280;63008;53.112;8.896;2023-07-30T09:31:24;100780.53;;;19.39;84.73
5126;BME280;63008;53.112;8.896;2023-07-30T09:33:25;100788.44;;;19.37;86.47
5126;BME280;63008;53.112;8.896;2023-07-30T09:35:26;100786.50;;;19.41;87.60
5126;BME280;63008;53.112;8.896;2023-07-30T09:37:27;100782.09;;;19.43;86.86
5126;BME280;63008;53.112;8.896;2023-07-30T09:39:28;100782.13;;;19.40;87.19
5126;BME280;63008;53.112;8.896;2023-07-30T09:41:30;100786.50;;;19.44;87.11
5126;BME280;63008;53.112;8.896;2023-07-30T09:43:35;100785.38;;;19.63;85.20
5126;BME280;63008;53.112;8.896;2023-07-30T09:45:36;100785.38;;;19.70;86.84
5126;BME280;63008;53.112;8.896;2023-07-30T09:47:46;100788.16;;;19.70;85.80
5126;BME280;63008;53.112;8.896;2023-07-30T09:49:47;100789.78;;;19.78;85.95
5126;BME280;63008;53.112;8.896;2023-07-30T09:51:49;100796.50;;;19.63;83.78
5126;BME280;63008;53.112;8.896;2023-07-30T09:53:51;100794.09;;;19.61;83.93
5126;BME280;63008;53.112;8.896;2023-07-30T09:55:53;100798.13;;;19.67;84.29
5126;BME280;63008;53.112;8.896;2023-07-30T09:57:54;100791.00;;;19.87;85.70
5126;BME280;63008;53.112;8.896;2023-07-30T09:59:55;100803.00;;;20.02;83.81
5126;BME280;63008;53.112;8.896;2023-07-30T10:01:57;100797.03;;;20.14;82.16
5126;BME280;63008;53.112;8.896;2023-07-30T10:03:58;100800.25;;;20.30;81.55
5126;BME280;63008;53.112;8.896;2023-07-30T10:06:03;100803.81;;;20.09;81.50
5126;BME280;63008;53.112;8.896;2023-07-30T10:08:09;100805.00;;;20.12;82.80
5126;BME280;63008;53.112;8.896;2023-07-30T10:10:12;100807.00;;;20.08;82.46
5126;BME280;63008;53.112;8.896;2023-07-30T10:12:15;100801.78;;;19.99;81.96
5126;BME280;63008;53.112;8.896;2023-07-30T10:14:17;100809.78;;;20.08;82.02
5126;BME280;63008;53.112;8.896;2023-07-30T10:16:25;100801.41;;;20.22;80.74
5126;BME280;63008;53.112;8.896;2023-07-30T10:18:42;100800.22;;;20.23;79.62
5126;BME280;63008;53.112;8.896;2023-07-30T10:20:52;100805.41;;;20.41;78.15
5126;BME280;63008;53.112;8.896;2023-07-30T10:22:59;100809.41;;;20.44;77.30
5126;BME280;63008;53.112;8.896;2023-07-30T10:25:02;100807.41;;;20.44;77.40
5126;BME280;63008;53.112;8.896;2023-07-30T10:27:09;100811.38;;;20.61;75.87
5126;BME280;63008;53.112;8.896;2023-07-30T10:29:15;100804.19;;;20.67;76.86
5126;BME280;63008;53.112;8.896;2023-07-30T10:31:16;100796.59;;;20.99;77.88
5126;BME280;63008;53.112;8.896;2023-07-30T10:33:17;100803.78;;;21.00;76.13
5126;BME280;63008;53.112;8.896;2023-07-30T10:35:41;100801.41;;;20.98;73.70
5126;BME280;63008;53.112;8.896;2023-07-30T10:37:45;100795.41;;;21.00;71.66